createdAt,value
2019-03-19T00:00:11.988Z,74.90
2019-03-19T00:02:40.535Z,74.90
2019-03-19T00:05:08.986Z,74.90
2019-03-19T00:07:37.573Z,75.00
2019-03-19T00:10:10.518Z,75.00
2019-03-19T00:12:38.942Z,75.10
2019-03-19T00:15:09.566Z,75.10
2019-03-19T00:17:37.922Z,75.20
2019-03-19T00:20:09.707Z,75.10
2019-03-19T00:22:38.140Z,75.10
2019-03-19T00:25:07.176Z,75.20
2019-03-19T00:27:35.987Z,75.10
2019-03-19T00:30:06.231Z,75.20
2019-03-19T00:32:34.044Z,75.60
2019-03-19T00:35:02.720Z,75.30
2019-03-19T00:37:31.404Z,75.70
2019-03-19T00:39:59.850Z,75.60
2019-03-19T00:42:30.285Z,75.30
2019-03-19T00:44:58.901Z,75.10
2019-03-19T00:47:27.567Z,75.20
2019-03-19T00:49:56.053Z,75.20
2019-03-19T00:52:24.532Z,75.10
2019-03-19T00:54:52.995Z,75.20
2019-03-19T00:57:21.640Z,75.30
2019-03-19T00:59:50.088Z,75.40
2019-03-19T01:02:18.600Z,75.30
2019-03-19T01:04:47.029Z,76.10
2019-03-19T01:07:15.613Z,75.00
2019-03-19T01:09:44.089Z,75.20
2019-03-19T01:12:12.539Z,75.10
2019-03-19T01:14:41.029Z,75.00
2019-03-19T01:17:09.455Z,74.90
2019-03-19T01:19:37.814Z,74.60
2019-03-19T01:22:06.186Z,74.80
2019-03-19T01:24:36.722Z,75.20
2019-03-19T01:27:05.131Z,75.40
2019-03-19T01:29:33.594Z,75.40
2019-03-19T01:32:02.194Z,75.90
2019-03-19T01:34:30.640Z,76.20
2019-03-19T01:36:59.098Z,76.60
2019-03-19T01:39:27.543Z,76.80
2019-03-19T01:41:56.055Z,76.60
2019-03-19T01:44:24.595Z,76.70
2019-03-19T01:46:53.012Z,76.40
2019-03-19T01:49:21.453Z,76.60
2019-03-19T01:51:50.019Z,75.90
2019-03-19T01:54:18.372Z,75.70
2019-03-19T01:56:46.897Z,75.70
2019-03-19T01:59:15.347Z,75.70
2019-03-19T02:01:43.739Z,75.10
2019-03-19T02:04:12.208Z,75.40
2019-03-19T02:06:40.626Z,75.40
2019-03-19T02:09:09.893Z,75.30
2019-03-19T02:11:38.598Z,75.20
2019-03-19T02:14:07.267Z,75.20
2019-03-19T02:16:35.675Z,75.00
2019-03-19T02:19:04.336Z,75.30
2019-03-19T02:21:32.868Z,75.40
2019-03-19T02:24:01.418Z,75.40
2019-03-19T02:26:29.882Z,75.10
2019-03-19T02:28:58.293Z,75.50
2019-03-19T02:31:26.769Z,75.50
2019-03-19T02:33:55.336Z,75.10
2019-03-19T02:36:24.082Z,75.00
2019-03-19T02:38:52.597Z,74.70
2019-03-19T02:41:24.008Z,75.00
2019-03-19T02:43:52.568Z,74.90
2019-03-19T02:46:21.055Z,75.00
2019-03-19T02:48:49.465Z,74.80
2019-03-19T02:51:17.917Z,74.70
2019-03-19T02:53:46.324Z,74.60
2019-03-19T02:56:14.929Z,75.10
2019-03-19T02:58:43.503Z,75.70
2019-03-19T03:01:11.968Z,75.80
2019-03-19T03:03:41.646Z,75.80
2019-03-19T03:06:09.996Z,76.90
2019-03-19T03:08:38.360Z,75.90
2019-03-19T03:11:06.813Z,76.40
2019-03-19T03:13:35.226Z,76.60
2019-03-19T03:16:03.776Z,76.80
2019-03-19T03:18:32.212Z,76.50
2019-03-19T03:21:00.597Z,76.40
2019-03-19T03:23:29.121Z,76.50
2019-03-19T03:25:57.629Z,77.10
2019-03-19T03:28:26.276Z,77.20
2019-03-19T03:30:54.825Z,77.30
2019-03-19T03:33:23.349Z,77.50
2019-03-19T03:35:51.790Z,77.70
2019-03-19T03:38:20.330Z,77.10
2019-03-19T03:40:48.949Z,78.30
2019-03-19T03:43:17.397Z,78.30
2019-03-19T03:45:45.746Z,78.50
2019-03-19T03:48:14.182Z,78.20
2019-03-19T03:50:42.671Z,78.20
2019-03-19T03:53:11.298Z,78.10
2019-03-19T03:55:39.681Z,78.20
2019-03-19T03:58:08.394Z,78.20
2019-03-19T04:00:36.827Z,78.50
2019-03-19T04:03:05.375Z,78.50
2019-03-19T04:05:34.068Z,78.30
2019-03-19T04:08:02.531Z,78.10
2019-03-19T04:10:30.979Z,78.40
2019-03-19T04:12:59.497Z,78.20
2019-03-19T04:15:27.925Z,78.10
2019-03-19T04:17:56.540Z,77.60
2019-03-19T04:20:25.050Z,77.50
2019-03-19T04:22:53.641Z,77.50
2019-03-19T04:25:22.131Z,77.70
2019-03-19T04:27:50.619Z,77.50
2019-03-19T04:30:19.999Z,77.40
2019-03-19T04:32:48.631Z,77.20
2019-03-19T04:35:17.122Z,76.80
2019-03-19T04:37:45.786Z,77.50
2019-03-19T04:40:21.969Z,76.50
2019-03-19T04:42:53.442Z,76.70
2019-03-19T04:45:21.883Z,76.70
2019-03-19T04:47:50.319Z,76.60
2019-03-19T04:50:18.809Z,76.60
2019-03-19T04:52:47.263Z,76.50
2019-03-19T04:55:16.565Z,76.60
2019-03-19T04:57:45.057Z,76.50
2019-03-19T05:00:15.996Z,76.20
2019-03-19T05:02:44.363Z,76.40
2019-03-19T05:05:14.375Z,76.10
2019-03-19T05:07:42.903Z,76.00
2019-03-19T05:10:18.186Z,76.00
2019-03-19T05:12:46.556Z,76.00
2019-03-19T05:15:15.178Z,75.80
2019-03-19T05:17:43.597Z,75.80
2019-03-19T05:20:15.449Z,75.70
2019-03-19T05:22:44.005Z,75.70
2019-03-19T05:25:12.441Z,75.70
2019-03-19T05:27:40.908Z,75.90
2019-03-19T05:30:19.063Z,76.00
2019-03-19T05:32:47.391Z,76.10
2019-03-19T05:35:15.893Z,76.20
2019-03-19T05:37:47.584Z,76.20
2019-03-19T05:40:16.982Z,76.40
2019-03-19T05:42:45.561Z,76.40
2019-03-19T05:45:14.775Z,76.50
2019-03-19T05:47:43.576Z,77.40
2019-03-19T05:50:16.627Z,76.50
2019-03-19T05:52:45.145Z,76.70
2019-03-19T05:55:13.586Z,77.20
2019-03-19T05:57:49.388Z,76.70
2019-03-19T06:00:12.489Z,77.40
2019-03-19T06:02:40.945Z,76.60
2019-03-19T06:05:13.469Z,76.40
2019-03-19T06:07:41.904Z,76.50
2019-03-19T06:10:14.298Z,76.70
2019-03-19T06:12:42.779Z,76.90
2019-03-19T06:15:14.845Z,76.80
2019-03-19T06:17:43.328Z,76.70
2019-03-19T06:20:21.026Z,76.30
2019-03-19T06:22:49.407Z,76.30
2019-03-19T06:25:17.842Z,76.10
2019-03-19T06:27:46.312Z,76.10
2019-03-19T06:30:18.659Z,76.00
2019-03-19T06:32:47.122Z,75.80
2019-03-19T06:35:16.221Z,75.70
2019-03-19T06:37:44.540Z,76.30
2019-03-19T06:40:17.936Z,76.70
2019-03-19T06:42:46.402Z,76.80
2019-03-19T06:45:19.733Z,77.00
2019-03-19T06:47:48.160Z,76.90
2019-03-19T06:50:18.790Z,76.70
2019-03-19T06:52:47.134Z,76.80
2019-03-19T06:55:16.829Z,76.20
2019-03-19T06:57:45.221Z,76.40
2019-03-19T07:00:15.824Z,76.10
2019-03-19T07:02:44.354Z,75.70
2019-03-19T07:05:12.847Z,75.80
2019-03-19T07:07:41.314Z,76.00
2019-03-19T07:10:18.481Z,76.10
2019-03-19T07:12:46.933Z,77.10
2019-03-19T07:15:22.245Z,75.80
2019-03-19T07:17:50.730Z,76.00
2019-03-19T07:20:24.393Z,76.30
2019-03-19T07:22:52.769Z,75.70
2019-03-19T07:25:21.440Z,75.50
2019-03-19T07:27:49.843Z,74.70
2019-03-19T07:30:19.239Z,75.30
2019-03-19T07:32:47.690Z,75.30
2019-03-19T07:35:16.138Z,74.30
2019-03-19T07:37:44.491Z,74.10
2019-03-19T07:40:16.472Z,73.80
2019-03-19T07:42:45.001Z,73.80
2019-03-19T07:45:18.289Z,73.30
2019-03-19T07:47:46.884Z,72.10
2019-03-19T07:50:22.820Z,72.70
2019-03-19T07:52:51.451Z,72.70
2019-03-19T07:55:19.864Z,72.50
2019-03-19T07:57:48.275Z,72.40
2019-03-19T08:00:18.764Z,71.70
2019-03-19T08:02:47.325Z,70.90
2019-03-19T08:05:15.912Z,71.90
2019-03-19T08:07:44.384Z,71.90
2019-03-19T08:10:17.808Z,71.70
2019-03-19T08:12:46.235Z,71.20
2019-03-19T08:15:19.726Z,71.60
2019-03-19T08:17:48.094Z,71.20
2019-03-19T08:20:17.330Z,71.90
2019-03-19T08:22:45.816Z,70.20
2019-03-19T08:25:14.842Z,70.00
2019-03-19T08:27:43.250Z,70.10
2019-03-19T08:30:19.360Z,69.90
2019-03-19T08:32:47.770Z,70.40
2019-03-19T08:35:16.251Z,69.80
2019-03-19T08:37:45.627Z,69.20
2019-03-19T08:40:17.892Z,68.90
2019-03-19T08:42:46.540Z,67.70
2019-03-19T08:45:17.341Z,67.40
2019-03-19T08:47:45.737Z,67.20
2019-03-19T08:50:16.069Z,66.80
2019-03-19T08:52:43.877Z,66.70
2019-03-19T08:55:12.361Z,66.50
2019-03-19T08:57:40.828Z,65.80
2019-03-19T09:00:21.553Z,65.80
2019-03-19T09:02:49.931Z,66.30
2019-03-19T09:05:19.737Z,66.30
2019-03-19T09:07:48.194Z,66.30
2019-03-19T09:10:17.624Z,64.50
2019-03-19T09:12:48.209Z,64.40
2019-03-19T09:15:18.722Z,64.10
2019-03-19T09:17:47.145Z,64.00
2019-03-19T09:20:17.755Z,63.30
2019-03-19T09:22:46.161Z,62.70
2019-03-19T09:25:14.679Z,62.60
2019-03-19T09:27:44.528Z,62.60
2019-03-19T09:30:16.184Z,62.00
2019-03-19T09:32:44.581Z,61.20
2019-03-19T09:35:13.004Z,60.40
2019-03-19T09:37:46.254Z,59.90
2019-03-19T09:40:16.066Z,59.60
2019-03-19T09:42:44.495Z,58.20
2019-03-19T09:45:13.805Z,58.20
2019-03-19T09:47:42.185Z,58.30
2019-03-19T09:50:13.167Z,57.40
2019-03-19T09:52:41.559Z,57.40
2019-03-19T09:55:11.610Z,57.40
2019-03-19T09:57:40.147Z,58.40
2019-03-19T10:00:18.002Z,57.60
2019-03-19T10:02:46.137Z,57.10
2019-03-19T10:05:14.479Z,56.90
2019-03-19T10:07:42.967Z,57.90
2019-03-19T10:10:23.282Z,58.10
2019-03-19T10:12:51.306Z,58.30
2019-03-19T10:15:20.592Z,57.10
2019-03-19T10:17:49.004Z,57.00
2019-03-19T10:20:19.770Z,56.40
2019-03-19T10:22:49.418Z,55.30
2019-03-19T10:25:17.822Z,55.60
2019-03-19T10:27:46.276Z,55.20
2019-03-19T10:30:25.303Z,55.70
2019-03-19T10:32:53.810Z,54.90
2019-03-19T10:35:22.248Z,55.50
2019-03-19T10:37:50.665Z,55.40
2019-03-19T10:40:22.198Z,55.30
2019-03-19T10:42:50.784Z,52.20
2019-03-19T10:45:23.881Z,49.50
2019-03-19T10:47:52.378Z,51.00
2019-03-19T10:50:24.275Z,52.90
2019-03-19T10:52:52.663Z,51.80
2019-03-19T10:55:21.025Z,51.20
2019-03-19T10:57:49.508Z,51.10
2019-03-19T11:00:22.267Z,50.60
2019-03-19T11:02:50.769Z,50.20
2019-03-19T11:05:19.867Z,50.00
2019-03-19T11:07:48.413Z,49.00
2019-03-19T11:10:17.469Z,48.10
2019-03-19T11:12:46.088Z,48.70
2019-03-19T11:15:17.195Z,49.20
2019-03-19T11:17:45.641Z,48.60
2019-03-19T11:20:18.855Z,48.30
2019-03-19T11:22:47.357Z,49.30
2019-03-19T11:25:28.645Z,48.40
2019-03-19T11:27:57.119Z,48.40
2019-03-19T11:30:26.568Z,47.60
2019-03-19T11:32:55.039Z,47.90
2019-03-19T11:35:23.497Z,46.60
2019-03-19T11:37:51.906Z,47.80
2019-03-19T11:40:21.026Z,47.00
2019-03-19T11:42:49.648Z,47.30
2019-03-19T11:45:25.583Z,47.00
2019-03-19T11:47:54.003Z,45.60
2019-03-19T11:50:28.095Z,46.30
2019-03-19T11:52:56.559Z,47.40
2019-03-19T11:55:24.971Z,46.90
2019-03-19T11:57:53.476Z,46.50
2019-03-19T12:00:43.255Z,47.10
2019-03-19T12:03:16.093Z,47.40
2019-03-19T12:05:41.797Z,48.90
2019-03-19T12:08:10.297Z,49.00
2019-03-19T12:10:38.768Z,50.90
2019-03-19T12:13:07.161Z,51.60
2019-03-19T12:15:35.611Z,49.90
2019-03-19T12:18:05.108Z,50.30
2019-03-19T12:20:33.576Z,49.60
2019-03-19T12:23:02.086Z,50.30
2019-03-19T12:25:31.350Z,50.00
2019-03-19T12:28:00.110Z,50.30
2019-03-19T12:30:28.709Z,50.80
2019-03-19T12:32:57.305Z,50.30
2019-03-19T12:35:25.779Z,50.60
2019-03-19T12:37:54.199Z,49.80
2019-03-19T12:40:35.734Z,50.90
2019-03-19T12:42:54.672Z,51.30
2019-03-19T12:45:24.039Z,48.80
2019-03-19T12:47:52.438Z,47.80
2019-03-19T12:50:24.668Z,46.70
2019-03-19T12:52:53.163Z,47.20
2019-03-19T12:55:21.532Z,45.30
2019-03-19T12:57:50.167Z,43.90
2019-03-19T13:00:34.301Z,44.20
2019-03-19T13:02:55.592Z,44.80
2019-03-19T13:05:24.103Z,46.70
2019-03-19T13:07:52.516Z,46.60
2019-03-19T13:10:24.603Z,45.60
2019-03-19T13:12:53.052Z,46.10
2019-03-19T13:15:21.493Z,45.90
2019-03-19T13:17:50.037Z,46.20
2019-03-19T13:20:19.507Z,46.70
2019-03-19T13:22:47.896Z,45.70
2019-03-19T13:25:25.984Z,45.90
2019-03-19T13:27:54.305Z,45.60
2019-03-19T13:30:23.952Z,45.60
2019-03-19T13:32:52.387Z,45.40
2019-03-19T13:35:20.873Z,44.50
2019-03-19T13:37:49.251Z,44.80
2019-03-19T13:40:18.314Z,44.40
2019-03-19T13:42:46.791Z,44.40
2019-03-19T13:45:20.566Z,44.70
2019-03-19T13:47:50.095Z,45.30
2019-03-19T13:50:19.295Z,45.30
2019-03-19T13:52:47.840Z,43.70
2019-03-19T13:55:17.567Z,41.10
2019-03-19T13:57:46.187Z,41.50
2019-03-19T14:00:20.296Z,42.50
2019-03-19T14:02:48.952Z,42.90
2019-03-19T14:05:19.120Z,43.40
2019-03-19T14:07:48.193Z,43.90
2019-03-19T14:10:20.600Z,43.80
2019-03-19T14:12:50.780Z,43.90
2019-03-19T14:15:20.381Z,44.20
2019-03-19T14:17:49.103Z,44.00
2019-03-19T14:20:17.651Z,43.80
2019-03-19T14:22:46.200Z,44.10
2019-03-19T14:25:18.197Z,44.10
2019-03-19T14:27:46.683Z,44.60
2019-03-19T14:30:19.117Z,45.00
2019-03-19T14:32:47.694Z,44.70
2019-03-19T14:35:16.270Z,45.20
2019-03-19T14:37:44.770Z,46.00
2019-03-19T14:40:23.447Z,45.10
2019-03-19T14:42:52.011Z,43.50
2019-03-19T14:45:20.797Z,42.10
2019-03-19T14:47:49.392Z,40.80
2019-03-19T14:50:19.256Z,40.60
2019-03-19T14:52:47.794Z,40.20
2019-03-19T14:55:16.378Z,38.80
2019-03-19T14:57:44.787Z,39.70
2019-03-19T15:00:22.808Z,39.70
2019-03-19T15:02:51.298Z,39.50
2019-03-19T15:05:20.076Z,40.80
2019-03-19T15:07:48.654Z,39.10
2019-03-19T15:10:20.209Z,39.40
2019-03-19T15:12:48.604Z,39.50
2019-03-19T15:15:18.152Z,39.20
2019-03-19T15:17:46.565Z,38.50
2019-03-19T15:20:23.232Z,38.00
2019-03-19T15:22:51.704Z,36.70
2019-03-19T15:25:23.100Z,36.20
2019-03-19T15:27:51.638Z,35.10
2019-03-19T15:30:20.831Z,35.30
2019-03-19T15:32:49.445Z,35.80
2019-03-19T15:35:18.068Z,35.20
2019-03-19T15:37:46.585Z,36.20
2019-03-19T15:40:16.420Z,37.60
2019-03-19T15:42:44.989Z,38.40
2019-03-19T15:45:17.958Z,39.30
2019-03-19T15:47:46.448Z,39.90
2019-03-19T15:50:15.832Z,41.00
2019-03-19T15:52:44.507Z,41.40
2019-03-19T15:55:14.543Z,42.60
2019-03-19T15:57:43.122Z,42.80
2019-03-19T16:00:18.847Z,43.40
2019-03-19T16:02:47.284Z,45.10
2019-03-19T16:05:15.808Z,44.90
2019-03-19T16:07:44.186Z,44.60
2019-03-19T16:10:15.046Z,45.00
2019-03-19T16:12:43.486Z,45.20
2019-03-19T16:15:14.563Z,44.50
2019-03-19T16:17:42.935Z,45.20
2019-03-19T16:20:15.878Z,45.60
2019-03-19T16:22:44.393Z,45.20
2019-03-19T16:25:12.984Z,45.40
2019-03-19T16:27:41.350Z,45.70
2019-03-19T16:30:14.550Z,45.10
2019-03-19T16:32:42.953Z,46.10
2019-03-19T16:35:12.762Z,46.80
2019-03-19T16:37:41.202Z,47.10
2019-03-19T16:40:17.508Z,47.70
2019-03-19T16:42:46.168Z,48.40
2019-03-19T16:45:14.597Z,48.90
2019-03-19T16:47:43.062Z,49.20
2019-03-19T16:50:13.681Z,49.40
2019-03-19T16:52:42.117Z,49.60
2019-03-19T16:55:15.194Z,50.60
2019-03-19T16:57:43.583Z,51.10
2019-03-19T17:00:19.231Z,51.20
2019-03-19T17:02:47.710Z,51.00
2019-03-19T17:05:17.313Z,51.00
2019-03-19T17:07:45.725Z,51.00
2019-03-19T17:10:19.142Z,51.70
2019-03-19T17:12:47.613Z,52.30
2019-03-19T17:15:17.286Z,52.20
2019-03-19T17:17:45.741Z,52.50
2019-03-19T17:20:15.574Z,52.70
2019-03-19T17:22:44.016Z,52.50
2019-03-19T17:25:15.001Z,53.40
2019-03-19T17:27:43.422Z,52.90
2019-03-19T17:30:17.157Z,53.80
2019-03-19T17:32:45.381Z,53.30
2019-03-19T17:35:13.813Z,53.50
2019-03-19T17:37:42.425Z,53.80
2019-03-19T17:40:13.091Z,53.80
2019-03-19T17:42:41.600Z,54.00
2019-03-19T17:45:11.994Z,54.20
2019-03-19T17:47:40.435Z,54.50
2019-03-19T17:50:14.793Z,54.60
2019-03-19T17:52:43.255Z,54.90
2019-03-19T17:55:14.824Z,55.00
2019-03-19T17:57:43.335Z,55.30
2019-03-19T18:00:16.070Z,55.50
2019-03-19T18:02:44.391Z,55.80
2019-03-19T18:05:13.121Z,56.00
2019-03-19T18:07:41.526Z,56.30
2019-03-19T18:10:12.141Z,56.40
2019-03-19T18:12:41.521Z,56.40
2019-03-19T18:15:16.099Z,56.60
2019-03-19T18:17:44.448Z,56.70
2019-03-19T18:20:17.583Z,56.90
2019-03-19T18:22:46.034Z,57.00
2019-03-19T18:25:18.426Z,57.00
2019-03-19T18:27:47.147Z,57.20
2019-03-19T18:30:23.545Z,57.30
2019-03-19T18:32:51.998Z,57.30
2019-03-19T18:35:20.372Z,57.50
2019-03-19T18:37:48.792Z,57.70
2019-03-19T18:40:18.572Z,57.60
2019-03-19T18:42:47.352Z,57.80
2019-03-19T18:45:19.087Z,57.90
2019-03-19T18:47:48.126Z,58.00
2019-03-19T18:50:21.786Z,58.10
2019-03-19T18:52:50.172Z,58.20
2019-03-19T18:55:18.686Z,58.30
2019-03-19T18:57:47.149Z,58.30
2019-03-19T19:00:22.460Z,58.40
2019-03-19T19:02:51.323Z,58.60
2019-03-19T19:05:24.123Z,58.80
2019-03-19T19:07:52.601Z,58.90
2019-03-19T19:10:21.784Z,58.90
2019-03-19T19:12:50.947Z,59.10
2019-03-19T19:15:24.258Z,59.20
2019-03-19T19:17:52.819Z,58.60
2019-03-19T19:20:21.341Z,59.40
2019-03-19T19:22:49.820Z,59.50
2019-03-19T19:25:23.951Z,59.60
2019-03-19T19:27:52.389Z,59.60
2019-03-19T19:30:26.167Z,59.80
2019-03-19T19:33:01.484Z,59.80
2019-03-19T19:35:24.606Z,59.80
2019-03-19T19:37:53.390Z,60.00
2019-03-19T19:40:22.363Z,60.10
2019-03-19T19:42:51.975Z,60.00
2019-03-19T19:45:20.305Z,60.20
2019-03-19T19:47:48.668Z,60.40
2019-03-19T19:50:20.932Z,61.30
2019-03-19T19:52:49.350Z,60.70
2019-03-19T19:55:17.729Z,61.10
2019-03-19T19:57:46.110Z,61.70
2019-03-19T20:00:17.955Z,62.00
2019-03-19T20:02:46.324Z,62.40
2019-03-19T20:05:14.715Z,62.70
2019-03-19T20:07:43.068Z,63.00
2019-03-19T20:10:22.664Z,63.10
2019-03-19T20:12:51.130Z,63.20
2019-03-19T20:15:19.995Z,63.40
2019-03-19T20:17:48.318Z,64.00
2019-03-19T20:20:18.696Z,64.00
2019-03-19T20:22:46.322Z,63.90
2019-03-19T20:25:14.916Z,63.70
2019-03-19T20:27:43.451Z,64.30
2019-03-19T20:30:19.664Z,63.60
2019-03-19T20:32:48.051Z,64.40
2019-03-19T20:35:16.389Z,63.50
2019-03-19T20:37:44.822Z,63.60
2019-03-19T20:40:17.807Z,63.60
2019-03-19T20:42:46.405Z,63.50
2019-03-19T20:45:17.142Z,63.50
2019-03-19T20:47:45.597Z,63.50
2019-03-19T20:50:16.972Z,63.60
2019-03-19T20:52:48.391Z,63.60
2019-03-19T20:55:16.872Z,64.10
2019-03-19T20:57:45.282Z,63.90
2019-03-19T21:00:18.204Z,64.00
2019-03-19T21:02:46.590Z,64.20
2019-03-19T21:05:15.161Z,64.50
2019-03-19T21:07:43.683Z,64.50
2019-03-19T21:10:15.055Z,64.50
2019-03-19T21:12:43.544Z,64.70
2019-03-19T21:15:16.976Z,64.60
2019-03-19T21:17:45.516Z,64.70
2019-03-19T21:20:13.867Z,64.70
2019-03-19T21:22:42.423Z,65.00
2019-03-19T21:25:11.244Z,65.20
2019-03-19T21:27:39.633Z,65.30
2019-03-19T21:30:11.044Z,65.60
2019-03-19T21:32:39.754Z,65.60
2019-03-19T21:35:08.507Z,65.60
2019-03-19T21:37:36.985Z,66.60
2019-03-19T21:40:10.807Z,66.10
2019-03-19T21:42:38.801Z,66.20
2019-03-19T21:45:10.248Z,66.60
2019-03-19T21:47:38.775Z,66.60
2019-03-19T21:50:10.384Z,66.80
2019-03-19T21:52:41.544Z,66.80
2019-03-19T21:55:19.149Z,68.00
2019-03-19T21:57:47.775Z,67.30
2019-03-19T22:00:22.353Z,67.30
2019-03-19T22:02:56.446Z,67.10
2019-03-19T22:05:24.821Z,68.00
2019-03-19T22:07:58.629Z,67.40
2019-03-19T22:10:27.177Z,67.30
2019-03-19T22:12:55.596Z,67.60
2019-03-19T22:15:26.067Z,67.50
2019-03-19T22:17:54.542Z,67.80
2019-03-19T22:20:22.876Z,67.80
2019-03-19T22:22:51.490Z,67.90
2019-03-19T22:25:20.091Z,67.30
2019-03-19T22:27:48.540Z,68.20
2019-03-19T22:30:17.903Z,68.40
2019-03-19T22:32:46.384Z,68.60
2019-03-19T22:35:14.761Z,68.60
2019-03-19T22:37:43.141Z,68.80
2019-03-19T22:40:15.616Z,68.80
2019-03-19T22:42:44.017Z,68.90
2019-03-19T22:45:14.593Z,69.00
2019-03-19T22:47:43.062Z,69.20
2019-03-19T22:50:15.527Z,69.30
2019-03-19T22:52:43.882Z,69.50
2019-03-19T22:55:14.461Z,69.70
2019-03-19T22:57:42.956Z,69.70
2019-03-19T23:00:19.009Z,69.70
2019-03-19T23:02:47.506Z,69.80
2019-03-19T23:05:15.949Z,70.20
2019-03-19T23:07:44.410Z,70.20
2019-03-19T23:10:12.748Z,70.20
2019-03-19T23:12:41.384Z,70.40
2019-03-19T23:15:11.106Z,71.20
2019-03-19T23:17:39.635Z,70.50
2019-03-19T23:20:10.364Z,70.60
2019-03-19T23:22:38.726Z,70.60
2019-03-19T23:25:07.212Z,70.80
2019-03-19T23:27:35.637Z,70.70
2019-03-19T23:30:09.839Z,71.00
2019-03-19T23:32:38.407Z,70.90
2019-03-19T23:35:07.198Z,71.10
2019-03-19T23:37:35.676Z,71.00
2019-03-19T23:40:07.023Z,71.00
2019-03-19T23:42:35.483Z,71.20
2019-03-19T23:45:05.766Z,71.40
2019-03-19T23:47:33.577Z,71.50
2019-03-19T23:50:01.970Z,71.10
2019-03-19T23:52:30.337Z,71.10
2019-03-19T23:54:58.821Z,71.70
2019-03-19T23:57:27.159Z,71.80
2019-03-19T23:59:55.639Z,72.00
